sensor_id;sensor_type;location;lat;lon;timestamp;temperature;humidity
78028;DHT22;67235;45.638;11.714;2023-02-12T00:02:08;2.20;64.50
78028;DHT22;67235;45.638;11.714;2023-02-12T00:04:34;2.30;64.70
78028;DHT22;67235;45.638;11.714;2023-02-12T00:07:00;2.30;64.70
78028;DHT22;67235;45.638;11.714;2023-02-12T00:09:26;2.20;64.70
78028;DHT22;67235;45.638;11.714;2023-02-12T00:11:52;2.10;64.60
78028;DHT22;67235;45.638;11.714;2023-02-12T00:14:18;2.20;64.60
78028;DHT22;67235;45.638;11.714;2023-02-12T00:16:44;2.10;64.60
78028;DHT22;67235;45.638;11.714;2023-02-12T00:19:10;2.00;64.80
78028;DHT22;67235;45.638;11.714;2023-02-12T00:21:40;2.10;64.60
78028;DHT22;67235;45.638;11.714;2023-02-12T00:24:10;2.00;64.50
78028;DHT22;67235;45.638;11.714;2023-02-12T00:26:37;2.00;64.60
78028;DHT22;67235;45.638;11.714;2023-02-12T00:29:05;2.00;64.40
78028;DHT22;67235;45.638;11.714;2023-02-12T00:31:33;2.00;64.60
78028;DHT22;67235;45.638;11.714;2023-02-12T00:34:00;2.00;64.50
78028;DHT22;67235;45.638;11.714;2023-02-12T00:36:31;2.20;64.40
78028;DHT22;67235;45.638;11.714;2023-02-12T00:39:02;1.90;64.40
78028;DHT22;67235;45.638;11.714;2023-02-12T00:41:32;1.80;64.40
78028;DHT22;67235;45.638;11.714;2023-02-12T00:43:59;2.00;64.50
78028;DHT22;67235;45.638;11.714;2023-02-12T00:46:25;2.00;64.40
78028;DHT22;67235;45.638;11.714;2023-02-12T00:48:54;2.00;64.30
78028;DHT22;67235;45.638;11.714;2023-02-12T00:51:22;2.20;64.20
78028;DHT22;67235;45.638;11.714;2023-02-12T00:53:50;2.40;64.20
78028;DHT22;67235;45.638;11.714;2023-02-12T00:56:20;2.10;64.20
78028;DHT22;67235;45.638;11.714;2023-02-12T00:58:49;2.10;64.20
78028;DHT22;67235;45.638;11.714;2023-02-12T01:01:15;1.70;64.60
78028;DHT22;67235;45.638;11.714;2023-02-12T01:03:41;1.90;64.40
78028;DHT22;67235;45.638;11.714;2023-02-12T01:06:08;2.00;64.40
78028;DHT22;67235;45.638;11.714;2023-02-12T01:08:34;1.80;64.10
78028;DHT22;67235;45.638;11.714;2023-02-12T01:11:01;1.90;64.10
78028;DHT22;67235;45.638;11.714;2023-02-12T01:13:29;1.40;64.10
78028;DHT22;67235;45.638;11.714;2023-02-12T01:16:19;1.70;64.30
78028;DHT22;67235;45.638;11.714;2023-02-12T01:18:46;1.50;64.50
78028;DHT22;67235;45.638;11.714;2023-02-12T01:21:18;1.60;64.30
78028;DHT22;67235;45.638;11.714;2023-02-12T01:23:44;1.30;64.50
78028;DHT22;67235;45.638;11.714;2023-02-12T01:26:14;1.30;64.60
78028;DHT22;67235;45.638;11.714;2023-02-12T01:28:42;1.60;64.70
78028;DHT22;67235;45.638;11.714;2023-02-12T01:31:15;1.50;64.60
78028;DHT22;67235;45.638;11.714;2023-02-12T01:33:42;1.30;64.70
78028;DHT22;67235;45.638;11.714;2023-02-12T01:36:09;1.20;64.80
78028;DHT22;67235;45.638;11.714;2023-02-12T01:38:35;1.20;64.80
78028;DHT22;67235;45.638;11.714;2023-02-12T01:41:09;1.40;64.80
78028;DHT22;67235;45.638;11.714;2023-02-12T01:43:36;1.50;64.70
78028;DHT22;67235;45.638;11.714;2023-02-12T01:46:03;1.40;64.40
78028;DHT22;67235;45.638;11.714;2023-02-12T01:48:33;1.60;64.30
78028;DHT22;67235;45.638;11.714;2023-02-12T01:51:01;1.40;64.20
78028;DHT22;67235;45.638;11.714;2023-02-12T01:53:32;1.50;64.20
78028;DHT22;67235;45.638;11.714;2023-02-12T01:56:00;1.30;64.40
78028;DHT22;67235;45.638;11.714;2023-02-12T01:58:31;1.10;64.50
78028;DHT22;67235;45.638;11.714;2023-02-12T02:01:01;1.00;64.50
78028;DHT22;67235;45.638;11.714;2023-02-12T02:03:28;1.10;64.70
78028;DHT22;67235;45.638;11.714;2023-02-12T02:06:07;1.40;64.60
78028;DHT22;67235;45.638;11.714;2023-02-12T02:08:36;1.40;64.70
78028;DHT22;67235;45.638;11.714;2023-02-12T02:11:02;1.20;64.40
78028;DHT22;67235;45.638;11.714;2023-02-12T02:13:48;1.20;64.40
78028;DHT22;67235;45.638;11.714;2023-02-12T02:16:34;1.00;64.40
78028;DHT22;67235;45.638;11.714;2023-02-12T02:19:07;1.10;64.40
78028;DHT22;67235;45.638;11.714;2023-02-12T02:22:29;1.10;64.60
78028;DHT22;67235;45.638;11.714;2023-02-12T02:30:37;1.10;64.90
78028;DHT22;67235;45.638;11.714;2023-02-12T02:33:21;1.10;64.80
78028;DHT22;67235;45.638;11.714;2023-02-12T02:36:03;1.10;64.60
78028;DHT22;67235;45.638;11.714;2023-02-12T02:38:58;1.10;64.80
78028;DHT22;67235;45.638;11.714;2023-02-12T02:41:34;1.00;65.10
78028;DHT22;67235;45.638;11.714;2023-02-12T02:44:07;1.00;65.10
78028;DHT22;67235;45.638;11.714;2023-02-12T02:46:46;1.10;65.00
78028;DHT22;67235;45.638;11.714;2023-02-12T02:49:23;1.20;65.20
78028;DHT22;67235;45.638;11.714;2023-02-12T02:51:53;1.40;65.10
78028;DHT22;67235;45.638;11.714;2023-02-12T02:54:47;1.30;64.80
78028;DHT22;67235;45.638;11.714;2023-02-12T02:57:18;1.10;64.90
78028;DHT22;67235;45.638;11.714;2023-02-12T03:00:06;1.10;64.80
78028;DHT22;67235;45.638;11.714;2023-02-12T03:02:39;1.00;65.10
78028;DHT22;67235;45.638;11.714;2023-02-12T03:07:37;1.10;65.00
78028;DHT22;67235;45.638;11.714;2023-02-12T03:10:12;1.20;65.10
78028;DHT22;67235;45.638;11.714;2023-02-12T03:12:51;1.30;65.20
78028;DHT22;67235;45.638;11.714;2023-02-12T03:15:40;1.00;65.10
78028;DHT22;67235;45.638;11.714;2023-02-12T03:18:16;1.10;65.20
78028;DHT22;67235;45.638;11.714;2023-02-12T03:20:53;1.10;64.90
78028;DHT22;67235;45.638;11.714;2023-02-12T03:23:37;1.10;64.90
78028;DHT22;67235;45.638;11.714;2023-02-12T03:26:08;1.00;65.30
78028;DHT22;67235;45.638;11.714;2023-02-12T03:28:37;0.70;65.40
78028;DHT22;67235;45.638;11.714;2023-02-12T03:37:01;1.00;65.40
78028;DHT22;67235;45.638;11.714;2023-02-12T03:42:12;0.80;65.10
78028;DHT22;67235;45.638;11.714;2023-02-12T03:44:47;0.80;65.60
78028;DHT22;67235;45.638;11.714;2023-02-12T03:47:40;1.00;66.40
78028;DHT22;67235;45.638;11.714;2023-02-12T03:50:13;0.80;65.50
78028;DHT22;67235;45.638;11.714;2023-02-12T03:52:41;0.80;66.30
78028;DHT22;67235;45.638;11.714;2023-02-12T03:55:08;0.80;66.00
78028;DHT22;67235;45.638;11.714;2023-02-12T03:57:41;0.80;65.70
78028;DHT22;67235;45.638;11.714;2023-02-12T04:00:18;0.70;66.40
78028;DHT22;67235;45.638;11.714;2023-02-12T04:02:45;0.90;66.10
78028;DHT22;67235;45.638;11.714;2023-02-12T04:05:18;0.80;65.90
78028;DHT22;67235;45.638;11.714;2023-02-12T04:07:45;0.60;65.50
78028;DHT22;67235;45.638;11.714;2023-02-12T04:10:11;0.80;65.50
78028;DHT22;67235;45.638;11.714;2023-02-12T04:18:18;0.70;66.80
78028;DHT22;67235;45.638;11.714;2023-02-12T04:23:42;0.50;67.20
78028;DHT22;67235;45.638;11.714;2023-02-12T04:29:07;0.90;67.30
78028;DHT22;67235;45.638;11.714;2023-02-12T04:35:03;0.40;67.50
78028;DHT22;67235;45.638;11.714;2023-02-12T04:37:38;0.50;67.20
78028;DHT22;67235;45.638;11.714;2023-02-12T04:40:08;0.60;67.70
78028;DHT22;67235;45.638;11.714;2023-02-12T04:42:47;0.40;67.40
78028;DHT22;67235;45.638;11.714;2023-02-12T04:45:19;0.80;67.10
78028;DHT22;67235;45.638;11.714;2023-02-12T04:47:46;0.70;66.90
78028;DHT22;67235;45.638;11.714;2023-02-12T04:50:12;0.60;66.90
78028;DHT22;67235;45.638;11.714;2023-02-12T04:52:38;0.40;66.80
78028;DHT22;67235;45.638;11.714;2023-02-12T04:55:04;0.60;67.00
78028;DHT22;67235;45.638;11.714;2023-02-12T04:57:30;0.40;67.30
78028;DHT22;67235;45.638;11.714;2023-02-12T04:59:56;0.60;66.90
78028;DHT22;67235;45.638;11.714;2023-02-12T05:02:22;0.60;67.30
78028;DHT22;67235;45.638;11.714;2023-02-12T05:04:49;0.70;67.10
78028;DHT22;67235;45.638;11.714;2023-02-12T05:07:15;0.60;66.60
78028;DHT22;67235;45.638;11.714;2023-02-12T05:09:41;0.50;66.30
78028;DHT22;67235;45.638;11.714;2023-02-12T05:12:07;0.50;66.60
78028;DHT22;67235;45.638;11.714;2023-02-12T05:14:33;0.50;66.50
78028;DHT22;67235;45.638;11.714;2023-02-12T05:16:59;0.50;66.80
78028;DHT22;67235;45.638;11.714;2023-02-12T05:19:25;0.40;66.70
78028;DHT22;67235;45.638;11.714;2023-02-12T05:21:51;0.40;66.60
78028;DHT22;67235;45.638;11.714;2023-02-12T05:24:17;0.30;66.80
78028;DHT22;67235;45.638;11.714;2023-02-12T05:26:43;0.40;67.30
78028;DHT22;67235;45.638;11.714;2023-02-12T05:29:09;0.60;67.00
78028;DHT22;67235;45.638;11.714;2023-02-12T05:31:35;0.60;66.60
78028;DHT22;67235;45.638;11.714;2023-02-12T05:34:01;0.40;67.80
78028;DHT22;67235;45.638;11.714;2023-02-12T05:36:27;0.40;68.50
78028;DHT22;67235;45.638;11.714;2023-02-12T05:38:56;0.10;68.40
78028;DHT22;67235;45.638;11.714;2023-02-12T05:41:23;0.10;67.70
78028;DHT22;67235;45.638;11.714;2023-02-12T05:43:50;0.20;68.20
78028;DHT22;67235;45.638;11.714;2023-02-12T05:46:17;0.30;68.30
78028;DHT22;67235;45.638;11.714;2023-02-12T05:48:44;0.20;68.50
78028;DHT22;67235;45.638;11.714;2023-02-12T05:51:12;0.30;68.90
78028;DHT22;67235;45.638;11.714;2023-02-12T05:53:39;0.10;68.90
78028;DHT22;67235;45.638;11.714;2023-02-12T05:56:19;0.30;69.10
78028;DHT22;67235;45.638;11.714;2023-02-12T05:58:47;0.30;69.00
78028;DHT22;67235;45.638;11.714;2023-02-12T06:01:29;0.10;69.00
78028;DHT22;67235;45.638;11.714;2023-02-12T06:03:57;0.20;68.30
78028;DHT22;67235;45.638;11.714;2023-02-12T06:06:25;0.10;67.70
78028;DHT22;67235;45.638;11.714;2023-02-12T06:08:51;0.40;68.30
78028;DHT22;67235;45.638;11.714;2023-02-12T06:11:17;0.00;67.90
78028;DHT22;67235;45.638;11.714;2023-02-12T06:13:44;0.40;67.60
78028;DHT22;67235;45.638;11.714;2023-02-12T06:16:18;0.30;67.70
78028;DHT22;67235;45.638;11.714;2023-02-12T06:18:44;0.50;67.50
78028;DHT22;67235;45.638;11.714;2023-02-12T06:21:10;0.40;67.20
78028;DHT22;67235;45.638;11.714;2023-02-12T06:23:36;0.40;67.20
78028;DHT22;67235;45.638;11.714;2023-02-12T06:26:01;0.20;67.30
78028;DHT22;67235;45.638;11.714;2023-02-12T06:28:27;0.30;67.60
78028;DHT22;67235;45.638;11.714;2023-02-12T06:30:53;0.40;67.60
78028;DHT22;67235;45.638;11.714;2023-02-12T06:33:19;0.40;67.50
78028;DHT22;67235;45.638;11.714;2023-02-12T06:35:45;0.40;67.10
78028;DHT22;67235;45.638;11.714;2023-02-12T06:38:11;0.60;67.10
78028;DHT22;67235;45.638;11.714;2023-02-12T06:40:37;0.70;66.90
78028;DHT22;67235;45.638;11.714;2023-02-12T06:43:02;0.80;66.70
78028;DHT22;67235;45.638;11.714;2023-02-12T06:45:28;1.30;66.30
78028;DHT22;67235;45.638;11.714;2023-02-12T06:47:54;1.40;65.40
78028;DHT22;67235;45.638;11.714;2023-02-12T06:50:20;1.70;65.00
78028;DHT22;67235;45.638;11.714;2023-02-12T06:52:46;1.50;65.10
78028;DHT22;67235;45.638;11.714;2023-02-12T06:55:12;1.90;64.90
78028;DHT22;67235;45.638;11.714;2023-02-12T06:57:38;1.90;65.00
78028;DHT22;67235;45.638;11.714;2023-02-12T07:00:04;2.40;65.10
78028;DHT22;67235;45.638;11.714;2023-02-12T07:02:30;2.40;64.80
78028;DHT22;67235;45.638;11.714;2023-02-12T07:04:56;2.70;64.90
78028;DHT22;67235;45.638;11.714;2023-02-12T07:07:21;2.90;64.60
78028;DHT22;67235;45.638;11.714;2023-02-12T07:09:48;3.10;64.70
78028;DHT22;67235;45.638;11.714;2023-02-12T07:12:14;3.30;65.00
78028;DHT22;67235;45.638;11.714;2023-02-12T07:14:58;3.30;64.50
78028;DHT22;67235;45.638;11.714;2023-02-12T07:17:46;3.60;64.10
78028;DHT22;67235;45.638;11.714;2023-02-12T07:20:17;4.30;63.90
78028;DHT22;67235;45.638;11.714;2023-02-12T07:23:00;4.70;63.20
78028;DHT22;67235;45.638;11.714;2023-02-12T07:26:03;4.80;62.90
78028;DHT22;67235;45.638;11.714;2023-02-12T07:28:45;5.50;62.40
78028;DHT22;67235;45.638;11.714;2023-02-12T07:31:20;5.60;62.20
78028;DHT22;67235;45.638;11.714;2023-02-12T07:33:47;6.10;61.80
78028;DHT22;67235;45.638;11.714;2023-02-12T07:36:18;6.60;61.50
78028;DHT22;67235;45.638;11.714;2023-02-12T07:38:47;6.90;45.50
78028;DHT22;67235;45.638;11.714;2023-02-12T07:41:15;7.50;43.70
78028;DHT22;67235;45.638;11.714;2023-02-12T07:43:42;8.80;41.00
78028;DHT22;67235;45.638;11.714;2023-02-12T07:46:14;9.20;39.10
78028;DHT22;67235;45.638;11.714;2023-02-12T07:48:41;10.60;37.10
78028;DHT22;67235;45.638;11.714;2023-02-12T07:51:09;11.30;35.80
78028;DHT22;67235;45.638;11.714;2023-02-12T07:53:36;12.30;34.40
78028;DHT22;67235;45.638;11.714;2023-02-12T07:56:09;13.10;31.00
78028;DHT22;67235;45.638;11.714;2023-02-12T07:58:36;13.70;29.70
78028;DHT22;67235;45.638;11.714;2023-02-12T08:01:16;14.00;28.80
78028;DHT22;67235;45.638;11.714;2023-02-12T08:03:43;14.30;28.50
78028;DHT22;67235;45.638;11.714;2023-02-12T08:06:17;15.40;26.40
78028;DHT22;67235;45.638;11.714;2023-02-12T08:08:44;15.20;27.20
78028;DHT22;67235;45.638;11.714;2023-02-12T08:11:11;15.10;26.30
78028;DHT22;67235;45.638;11.714;2023-02-12T08:13:38;15.00;27.10
78028;DHT22;67235;45.638;11.714;2023-02-12T08:16:09;15.70;24.80
78028;DHT22;67235;45.638;11.714;2023-02-12T08:18:35;16.90;24.00
78028;DHT22;67235;45.638;11.714;2023-02-12T08:21:03;16.60;23.00
78028;DHT22;67235;45.638;11.714;2023-02-12T08:23:29;17.10;23.20
78028;DHT22;67235;45.638;11.714;2023-02-12T08:26:07;17.30;21.80
78028;DHT22;67235;45.638;11.714;2023-02-12T08:28:33;17.60;20.90
78028;DHT22;67235;45.638;11.714;2023-02-12T08:31:04;18.20;17.90
78028;DHT22;67235;45.638;11.714;2023-02-12T08:33:31;17.90;18.80
78028;DHT22;67235;45.638;11.714;2023-02-12T08:36:17;18.50;17.10
78028;DHT22;67235;45.638;11.714;2023-02-12T08:38:44;18.80;15.80
78028;DHT22;67235;45.638;11.714;2023-02-12T08:41:16;19.00;16.10
78028;DHT22;67235;45.638;11.714;2023-02-12T08:43:43;18.60;16.40
78028;DHT22;67235;45.638;11.714;2023-02-12T08:46:12;20.00;15.60
78028;DHT22;67235;45.638;11.714;2023-02-12T08:48:39;19.40;14.80
78028;DHT22;67235;45.638;11.714;2023-02-12T08:51:14;19.20;13.80
78028;DHT22;67235;45.638;11.714;2023-02-12T08:53:42;19.70;14.20
78028;DHT22;67235;45.638;11.714;2023-02-12T08:56:10;19.10;14.70
78028;DHT22;67235;45.638;11.714;2023-02-12T08:58:36;19.10;14.70
78028;DHT22;67235;45.638;11.714;2023-02-12T09:01:03;19.50;21.60
78028;DHT22;67235;45.638;11.714;2023-02-12T09:03:30;20.90;14.30
78028;DHT22;67235;45.638;11.714;2023-02-12T09:05:56;20.20;12.30
78028;DHT22;67235;45.638;11.714;2023-02-12T09:08:22;19.90;13.20
78028;DHT22;67235;45.638;11.714;2023-02-12T09:10:48;20.20;13.60
78028;DHT22;67235;45.638;11.714;2023-02-12T09:13:14;19.40;13.00
78028;DHT22;67235;45.638;11.714;2023-02-12T09:15:42;19.70;13.20
78028;DHT22;67235;45.638;11.714;2023-02-12T09:18:16;19.70;13.00
78028;DHT22;67235;45.638;11.714;2023-02-12T09:20:48;20.10;13.40
78028;DHT22;67235;45.638;11.714;2023-02-12T09:23:14;20.40;12.80
78028;DHT22;67235;45.638;11.714;2023-02-12T09:25:42;20.40;12.40
78028;DHT22;67235;45.638;11.714;2023-02-12T09:28:09;20.40;11.00
78028;DHT22;67235;45.638;11.714;2023-02-12T09:30:36;20.40;12.30
78028;DHT22;67235;45.638;11.714;2023-02-12T09:33:03;20.30;15.20
78028;DHT22;67235;45.638;11.714;2023-02-12T09:35:29;20.90;16.70
78028;DHT22;67235;45.638;11.714;2023-02-12T09:37:54;20.70;10.70
78028;DHT22;67235;45.638;11.714;2023-02-12T09:40:38;21.10;12.00
78028;DHT22;67235;45.638;11.714;2023-02-12T09:46:15;21.20;10.90
78028;DHT22;67235;45.638;11.714;2023-02-12T09:51:39;21.00;12.90
78028;DHT22;67235;45.638;11.714;2023-02-12T09:54:22;21.60;11.40
78028;DHT22;67235;45.638;11.714;2023-02-12T09:57:00;21.10;11.90
78028;DHT22;67235;45.638;11.714;2023-02-12T10:01:58;21.80;9.80
78028;DHT22;67235;45.638;11.714;2023-02-12T10:04:25;21.60;11.80
78028;DHT22;67235;45.638;11.714;2023-02-12T10:07:04;21.60;8.70
78028;DHT22;67235;45.638;11.714;2023-02-12T10:18:07;21.00;11.60
78028;DHT22;67235;45.638;11.714;2023-02-12T10:26:30;22.10;9.30
78028;DHT22;67235;45.638;11.714;2023-02-12T10:29:32;21.70;9.60
78028;DHT22;67235;45.638;11.714;2023-02-12T10:32:03;22.70;10.80
78028;DHT22;67235;45.638;11.714;2023-02-12T10:34:34;22.50;9.70
78028;DHT22;67235;45.638;11.714;2023-02-12T10:39:55;23.00;9.30
78028;DHT22;67235;45.638;11.714;2023-02-12T10:42:43;23.60;7.70
78028;DHT22;67235;45.638;11.714;2023-02-12T10:45:20;24.00;8.40
78028;DHT22;67235;45.638;11.714;2023-02-12T10:47:51;23.90;7.20
78028;DHT22;67235;45.638;11.714;2023-02-12T10:52:57;22.60;7.70
78028;DHT22;67235;45.638;11.714;2023-02-12T10:55:32;23.60;6.80
78028;DHT22;67235;45.638;11.714;2023-02-12T11:01:35;23.30;7.70
78028;DHT22;67235;45.638;11.714;2023-02-12T11:07:48;24.20;5.90
78028;DHT22;67235;45.638;11.714;2023-02-12T11:11:15;23.90;5.70
78028;DHT22;67235;45.638;11.714;2023-02-12T11:13:46;22.70;5.40
78028;DHT22;67235;45.638;11.714;2023-02-12T11:21:24;23.20;5.50
78028;DHT22;67235;45.638;11.714;2023-02-12T11:23:50;23.60;6.10
78028;DHT22;67235;45.638;11.714;2023-02-12T11:31:29;24.10;5.30
78028;DHT22;67235;45.638;11.714;2023-02-12T11:34:14;23.70;6.60
78028;DHT22;67235;45.638;11.714;2023-02-12T11:36:46;23.60;3.90
78028;DHT22;67235;45.638;11.714;2023-02-12T11:39:32;23.60;4.40
78028;DHT22;67235;45.638;11.714;2023-02-12T11:44:35;24.20;4.00
78028;DHT22;67235;45.638;11.714;2023-02-12T11:47:04;23.50;5.00
78028;DHT22;67235;45.638;11.714;2023-02-12T11:52:26;22.80;5.10
78028;DHT22;67235;45.638;11.714;2023-02-12T11:54:56;22.40;5.70
78028;DHT22;67235;45.638;11.714;2023-02-12T12:00:15;22.20;6.60
78028;DHT22;67235;45.638;11.714;2023-02-12T12:02:57;22.80;4.40
78028;DHT22;67235;45.638;11.714;2023-02-12T12:05:33;22.80;5.20
78028;DHT22;67235;45.638;11.714;2023-02-12T12:08:05;23.10;4.50
78028;DHT22;67235;45.638;11.714;2023-02-12T12:10:49;22.80;3.60
78028;DHT22;67235;45.638;11.714;2023-02-12T12:13:20;22.50;4.40
78028;DHT22;67235;45.638;11.714;2023-02-12T12:15:52;22.20;4.60
78028;DHT22;67235;45.638;11.714;2023-02-12T12:18:53;22.10;4.60
78028;DHT22;67235;45.638;11.714;2023-02-12T12:26:41;21.40;5.60
78028;DHT22;67235;45.638;11.714;2023-02-12T12:29:54;21.20;8.20
78028;DHT22;67235;45.638;11.714;2023-02-12T12:32:24;21.50;6.00
78028;DHT22;67235;45.638;11.714;2023-02-12T12:34:51;21.70;6.00
78028;DHT22;67235;45.638;11.714;2023-02-12T12:46:06;20.90;6.50
78028;DHT22;67235;45.638;11.714;2023-02-12T12:54:39;20.60;8.40
78028;DHT22;67235;45.638;11.714;2023-02-12T12:57:24;20.50;9.90
78028;DHT22;67235;45.638;11.714;2023-02-12T13:13:33;18.70;10.90
78028;DHT22;67235;45.638;11.714;2023-02-12T13:19:23;18.80;9.80
78028;DHT22;67235;45.638;11.714;2023-02-12T13:22:20;19.00;8.40
78028;DHT22;67235;45.638;11.714;2023-02-12T13:27:45;18.90;4.40
78028;DHT22;67235;45.638;11.714;2023-02-12T13:30:28;19.00;6.30
78028;DHT22;67235;45.638;11.714;2023-02-12T13:35:32;18.60;6.80
78028;DHT22;67235;45.638;11.714;2023-02-12T13:37:59;17.90;7.40
78028;DHT22;67235;45.638;11.714;2023-02-12T13:40:29;17.30;8.90
78028;DHT22;67235;45.638;11.714;2023-02-12T13:43:05;17.30;9.60
78028;DHT22;67235;45.638;11.714;2023-02-12T13:50:52;17.40;10.30
78028;DHT22;67235;45.638;11.714;2023-02-12T14:01:57;16.80;13.00
78028;DHT22;67235;45.638;11.714;2023-02-12T14:07:05;16.90;14.10
78028;DHT22;67235;45.638;11.714;2023-02-12T14:09:40;16.90;13.00
78028;DHT22;67235;45.638;11.714;2023-02-12T14:12:16;17.00;13.70
78028;DHT22;67235;45.638;11.714;2023-02-12T14:14:47;16.50;14.90
78028;DHT22;67235;45.638;11.714;2023-02-12T14:17:38;16.70;16.20
78028;DHT22;67235;45.638;11.714;2023-02-12T14:25:00;17.00;15.30
78028;DHT22;67235;45.638;11.714;2023-02-12T14:35:31;16.20;15.20
78028;DHT22;67235;45.638;11.714;2023-02-12T14:37:59;16.10;16.10
78028;DHT22;67235;45.638;11.714;2023-02-12T14:40:42;16.30;15.20
78028;DHT22;67235;45.638;11.714;2023-02-12T14:43:34;16.40;15.80
78028;DHT22;67235;45.638;11.714;2023-02-12T14:48:53;16.10;16.30
78028;DHT22;67235;45.638;11.714;2023-02-12T14:51:44;16.30;15.50
78028;DHT22;67235;45.638;11.714;2023-02-12T14:54:29;16.30;15.40
78028;DHT22;67235;45.638;11.714;2023-02-12T14:56:58;16.30;16.00
78028;DHT22;67235;45.638;11.714;2023-02-12T14:59:27;16.30;16.10
78028;DHT22;67235;45.638;11.714;2023-02-12T15:01:59;16.10;18.90
78028;DHT22;67235;45.638;11.714;2023-02-12T15:04:30;16.00;17.60
78028;DHT22;67235;45.638;11.714;2023-02-12T15:07:03;15.70;17.80
78028;DHT22;67235;45.638;11.714;2023-02-12T15:09:57;15.60;19.60
78028;DHT22;67235;45.638;11.714;2023-02-12T15:12:26;15.50;18.70
78028;DHT22;67235;45.638;11.714;2023-02-12T15:23:39;15.30;20.00
78028;DHT22;67235;45.638;11.714;2023-02-12T15:26:13;15.20;21.80
78028;DHT22;67235;45.638;11.714;2023-02-12T15:28:40;15.00;22.00
78028;DHT22;67235;45.638;11.714;2023-02-12T15:31:07;14.90;21.10
78028;DHT22;67235;45.638;11.714;2023-02-12T15:33:41;14.80;21.70
78028;DHT22;67235;45.638;11.714;2023-02-12T15:36:09;14.80;21.60
78028;DHT22;67235;45.638;11.714;2023-02-12T15:38:40;14.70;21.90
78028;DHT22;67235;45.638;11.714;2023-02-12T15:41:08;14.60;21.90
78028;DHT22;67235;45.638;11.714;2023-02-12T15:43:39;14.60;24.00
78028;DHT22;67235;45.638;11.714;2023-02-12T15:46:11;14.50;23.00
78028;DHT22;67235;45.638;11.714;2023-02-12T15:48:38;14.60;23.30
78028;DHT22;67235;45.638;11.714;2023-02-12T15:51:15;14.50;23.80
78028;DHT22;67235;45.638;11.714;2023-02-12T15:53:43;14.50;24.00
78028;DHT22;67235;45.638;11.714;2023-02-12T15:56:14;14.30;24.20
78028;DHT22;67235;45.638;11.714;2023-02-12T15:58:53;14.30;24.60
78028;DHT22;67235;45.638;11.714;2023-02-12T16:01:22;14.20;25.10
78028;DHT22;67235;45.638;11.714;2023-02-12T16:03:52;13.90;25.60
78028;DHT22;67235;45.638;11.714;2023-02-12T16:06:20;13.80;26.00
78028;DHT22;67235;45.638;11.714;2023-02-12T16:09:02;13.70;25.60
78028;DHT22;67235;45.638;11.714;2023-02-12T16:11:28;13.70;26.00
78028;DHT22;67235;45.638;11.714;2023-02-12T16:13:58;13.60;25.60
78028;DHT22;67235;45.638;11.714;2023-02-12T16:16:26;13.50;25.40
78028;DHT22;67235;45.638;11.714;2023-02-12T16:19:19;13.40;25.90
78028;DHT22;67235;45.638;11.714;2023-02-12T16:21:52;13.20;26.90
78028;DHT22;67235;45.638;11.714;2023-02-12T16:24:34;13.10;27.20
78028;DHT22;67235;45.638;11.714;2023-02-12T16:27:16;13.00;27.30
78028;DHT22;67235;45.638;11.714;2023-02-12T16:29:46;13.00;27.10
78028;DHT22;67235;45.638;11.714;2023-02-12T16:32:36;12.80;28.30
78028;DHT22;67235;45.638;11.714;2023-02-12T16:35:27;12.60;29.30
78028;DHT22;67235;45.638;11.714;2023-02-12T16:40:32;12.40;32.10
78028;DHT22;67235;45.638;11.714;2023-02-12T16:43:02;12.20;30.90
78028;DHT22;67235;45.638;11.714;2023-02-12T16:48:11;11.50;32.50
78028;DHT22;67235;45.638;11.714;2023-02-12T16:50:48;11.50;33.20
78028;DHT22;67235;45.638;11.714;2023-02-12T16:55:51;11.10;33.70
78028;DHT22;67235;45.638;11.714;2023-02-12T16:58:17;11.00;34.80
78028;DHT22;67235;45.638;11.714;2023-02-12T17:00:43;11.00;33.00
78028;DHT22;67235;45.638;11.714;2023-02-12T17:03:18;10.90;33.50
78028;DHT22;67235;45.638;11.714;2023-02-12T17:05:44;10.60;34.90
78028;DHT22;67235;45.638;11.714;2023-02-12T17:08:15;10.40;34.60
78028;DHT22;67235;45.638;11.714;2023-02-12T17:10:42;10.30;35.70
78028;DHT22;67235;45.638;11.714;2023-02-12T17:13:09;10.20;35.30
78028;DHT22;67235;45.638;11.714;2023-02-12T17:15:46;10.10;36.80
78028;DHT22;67235;45.638;11.714;2023-02-12T17:18:14;10.10;37.10
78028;DHT22;67235;45.638;11.714;2023-02-12T17:20:50;10.10;61.80
78028;DHT22;67235;45.638;11.714;2023-02-12T17:23:17;10.00;38.80
78028;DHT22;67235;45.638;11.714;2023-02-12T17:25:43;10.10;41.20
78028;DHT22;67235;45.638;11.714;2023-02-12T17:28:08;10.20;39.70
78028;DHT22;67235;45.638;11.714;2023-02-12T17:30:34;10.00;37.10
78028;DHT22;67235;45.638;11.714;2023-02-12T17:33:02;9.80;37.60
78028;DHT22;67235;45.638;11.714;2023-02-12T17:35:28;9.40;37.90
78028;DHT22;67235;45.638;11.714;2023-02-12T17:37:56;9.30;38.80
78028;DHT22;67235;45.638;11.714;2023-02-12T17:40:24;9.20;39.70
78028;DHT22;67235;45.638;11.714;2023-02-12T17:42:49;9.20;40.50
78028;DHT22;67235;45.638;11.714;2023-02-12T17:45:16;9.20;40.00
78028;DHT22;67235;45.638;11.714;2023-02-12T17:47:42;9.10;39.80
78028;DHT22;67235;45.638;11.714;2023-02-12T17:50:13;8.90;40.80
78028;DHT22;67235;45.638;11.714;2023-02-12T17:52:41;8.80;39.50
78028;DHT22;67235;45.638;11.714;2023-02-12T17:55:08;8.70;40.80
78028;DHT22;67235;45.638;11.714;2023-02-12T17:57:36;8.60;41.30
78028;DHT22;67235;45.638;11.714;2023-02-12T18:00:04;8.50;43.60
78028;DHT22;67235;45.638;11.714;2023-02-12T18:02:30;8.30;44.60
78028;DHT22;67235;45.638;11.714;2023-02-12T18:04:56;8.30;45.50
78028;DHT22;67235;45.638;11.714;2023-02-12T18:07:22;8.20;45.30
78028;DHT22;67235;45.638;11.714;2023-02-12T18:09:47;8.00;61.80
78028;DHT22;67235;45.638;11.714;2023-02-12T18:12:13;8.00;63.00
78028;DHT22;67235;45.638;11.714;2023-02-12T18:14:39;8.00;62.40
78028;DHT22;67235;45.638;11.714;2023-02-12T18:17:05;7.90;62.60
78028;DHT22;67235;45.638;11.714;2023-02-12T18:19:31;8.00;62.30
78028;DHT22;67235;45.638;11.714;2023-02-12T18:21:56;8.00;62.50
78028;DHT22;67235;45.638;11.714;2023-02-12T18:24:22;7.80;62.50
78028;DHT22;67235;45.638;11.714;2023-02-12T18:26:49;7.70;62.30
78028;DHT22;67235;45.638;11.714;2023-02-12T18:29:16;7.60;62.50
78028;DHT22;67235;45.638;11.714;2023-02-12T18:31:42;7.60;62.70
78028;DHT22;67235;45.638;11.714;2023-02-12T18:34:08;7.40;62.70
78028;DHT22;67235;45.638;11.714;2023-02-12T18:36:34;7.40;62.80
78028;DHT22;67235;45.638;11.714;2023-02-12T18:39:00;7.20;62.90
78028;DHT22;67235;45.638;11.714;2023-02-12T18:41:29;7.20;63.20
78028;DHT22;67235;45.638;11.714;2023-02-12T18:43:56;7.20;63.40
78028;DHT22;67235;45.638;11.714;2023-02-12T18:46:27;7.10;63.40
78028;DHT22;67235;45.638;11.714;2023-02-12T18:48:54;7.20;63.50